sensor_id;sensor_type;location;lat;lon;timestamp;temperature;humidity
54461;DHT22;40371;49.414;11.010;2023-02-03T00:01:43;5.90;99.90
54461;DHT22;40371;49.414;11.010;2023-02-03T00:04:09;5.90;99.90
54461;DHT22;40371;49.414;11.010;2023-02-03T00:06:34;5.90;99.90
54461;DHT22;40371;49.414;11.010;2023-02-03T00:09:00;5.90;99.90
54461;DHT22;40371;49.414;11.010;2023-02-03T00:11:28;5.90;99.90
54461;DHT22;40371;49.414;11.010;2023-02-03T00:13:54;5.90;99.90
54461;DHT22;40371;49.414;11.010;2023-02-03T00:16:20;5.80;99.90
54461;DHT22;40371;49.414;11.010;2023-02-03T00:18:46;5.80;99.90
54461;DHT22;40371;49.414;11.010;2023-02-03T00:21:11;5.80;99.90
54461;DHT22;40371;49.414;11.010;2023-02-03T00:23:39;5.80;99.90
54461;DHT22;40371;49.414;11.010;2023-02-03T00:26:07;5.80;99.90
54461;DHT22;40371;49.414;11.010;2023-02-03T00:28:33;5.80;99.90
54461;DHT22;40371;49.414;11.010;2023-02-03T00:30:59;5.80;99.90
54461;DHT22;40371;49.414;11.010;2023-02-03T00:33:24;5.80;99.90
54461;DHT22;40371;49.414;11.010;2023-02-03T00:35:50;5.70;99.90
54461;DHT22;40371;49.414;11.010;2023-02-03T00:38:15;5.80;99.90
54461;DHT22;40371;49.414;11.010;2023-02-03T00:40:41;5.70;99.90
54461;DHT22;40371;49.414;11.010;2023-02-03T00:43:07;5.70;99.90
54461;DHT22;40371;49.414;11.010;2023-02-03T00:45:32;5.70;99.90
54461;DHT22;40371;49.414;11.010;2023-02-03T00:47:58;5.70;99.90
54461;DHT22;40371;49.414;11.010;2023-02-03T00:50:23;5.70;99.90
54461;DHT22;40371;49.414;11.010;2023-02-03T00:52:49;5.70;99.90
54461;DHT22;40371;49.414;11.010;2023-02-03T00:55:15;5.80;99.90
54461;DHT22;40371;49.414;11.010;2023-02-03T00:57:40;5.70;99.90
54461;DHT22;40371;49.414;11.010;2023-02-03T01:00:06;5.70;99.90
54461;DHT22;40371;49.414;11.010;2023-02-03T01:02:34;5.70;99.90
54461;DHT22;40371;49.414;11.010;2023-02-03T01:05:00;5.70;99.90
54461;DHT22;40371;49.414;11.010;2023-02-03T01:07:25;5.70;99.90
54461;DHT22;40371;49.414;11.010;2023-02-03T01:09:51;5.70;99.90
54461;DHT22;40371;49.414;11.010;2023-02-03T01:12:17;5.70;99.90
54461;DHT22;40371;49.414;11.010;2023-02-03T01:14:42;5.70;99.90
54461;DHT22;40371;49.414;11.010;2023-02-03T01:17:08;5.70;99.90
54461;DHT22;40371;49.414;11.010;2023-02-03T01:19:33;5.70;99.90
54461;DHT22;40371;49.414;11.010;2023-02-03T01:21:59;5.70;99.90
54461;DHT22;40371;49.414;11.010;2023-02-03T01:24:25;5.70;99.90
54461;DHT22;40371;49.414;11.010;2023-02-03T01:26:50;5.70;99.90
54461;DHT22;40371;49.414;11.010;2023-02-03T01:29:16;5.80;99.90
54461;DHT22;40371;49.414;11.010;2023-02-03T01:31:42;5.80;99.90
54461;DHT22;40371;49.414;11.010;2023-02-03T01:34:12;5.80;99.90
54461;DHT22;40371;49.414;11.010;2023-02-03T01:36:39;5.80;99.90
54461;DHT22;40371;49.414;11.010;2023-02-03T01:39:05;5.80;99.90
54461;DHT22;40371;49.414;11.010;2023-02-03T01:41:33;5.80;99.90
54461;DHT22;40371;49.414;11.010;2023-02-03T01:44:00;5.80;99.90
54461;DHT22;40371;49.414;11.010;2023-02-03T01:49:12;5.80;99.90
54461;DHT22;40371;49.414;11.010;2023-02-03T01:51:40;5.80;99.90
54461;DHT22;40371;49.414;11.010;2023-02-03T01:54:11;5.90;99.90
54461;DHT22;40371;49.414;11.010;2023-02-03T01:56:40;5.90;99.90
54461;DHT22;40371;49.414;11.010;2023-02-03T01:59:07;5.90;99.90
54461;DHT22;40371;49.414;11.010;2023-02-03T02:01:33;5.90;99.90
54461;DHT22;40371;49.414;11.010;2023-02-03T02:04:02;5.90;99.90
54461;DHT22;40371;49.414;11.010;2023-02-03T02:06:28;5.90;99.90
54461;DHT22;40371;49.414;11.010;2023-02-03T02:08:54;5.90;99.90
54461;DHT22;40371;49.414;11.010;2023-02-03T02:11:22;5.90;99.90
54461;DHT22;40371;49.414;11.010;2023-02-03T02:13:50;5.90;99.90
54461;DHT22;40371;49.414;11.010;2023-02-03T02:21:51;5.90;99.90
54461;DHT22;40371;49.414;11.010;2023-02-03T02:27:36;5.90;99.90
54461;DHT22;40371;49.414;11.010;2023-02-03T02:30:24;5.90;99.90
54461;DHT22;40371;49.414;11.010;2023-02-03T02:35:49;6.00;99.90
54461;DHT22;40371;49.414;11.010;2023-02-03T02:41:23;6.00;99.90
54461;DHT22;40371;49.414;11.010;2023-02-03T02:46:30;6.00;99.90
54461;DHT22;40371;49.414;11.010;2023-02-03T02:49:11;6.00;99.90
54461;DHT22;40371;49.414;11.010;2023-02-03T02:51:40;6.00;99.90
54461;DHT22;40371;49.414;11.010;2023-02-03T02:54:11;6.10;99.90
54461;DHT22;40371;49.414;11.010;2023-02-03T02:56:38;6.10;99.90
54461;DHT22;40371;49.414;11.010;2023-02-03T02:59:05;6.10;99.90
54461;DHT22;40371;49.414;11.010;2023-02-03T03:01:32;6.10;99.90
54461;DHT22;40371;49.414;11.010;2023-02-03T03:04:01;6.10;99.90
54461;DHT22;40371;49.414;11.010;2023-02-03T03:06:35;6.10;99.90
54461;DHT22;40371;49.414;11.010;2023-02-03T03:11:32;6.10;99.90
54461;DHT22;40371;49.414;11.010;2023-02-03T03:13:59;6.10;99.90
54461;DHT22;40371;49.414;11.010;2023-02-03T03:16:26;6.10;99.90
54461;DHT22;40371;49.414;11.010;2023-02-03T03:18:59;6.10;99.90
54461;DHT22;40371;49.414;11.010;2023-02-03T03:21:53;6.10;99.90
54461;DHT22;40371;49.414;11.010;2023-02-03T03:24:30;6.10;99.90
54461;DHT22;40371;49.414;11.010;2023-02-03T03:27:01;6.10;99.90
54461;DHT22;40371;49.414;11.010;2023-02-03T03:31:56;6.10;99.90
54461;DHT22;40371;49.414;11.010;2023-02-03T03:34:22;6.10;99.90
54461;DHT22;40371;49.414;11.010;2023-02-03T03:37:02;6.10;99.90
54461;DHT22;40371;49.414;11.010;2023-02-03T03:39:51;6.10;99.90
54461;DHT22;40371;49.414;11.010;2023-02-03T03:42:23;6.10;99.90
54461;DHT22;40371;49.414;11.010;2023-02-03T03:44:56;6.10;99.90
54461;DHT22;40371;49.414;11.010;2023-02-03T03:49:52;6.10;99.90
54461;DHT22;40371;49.414;11.010;2023-02-03T03:52:23;6.10;99.90
54461;DHT22;40371;49.414;11.010;2023-02-03T03:54:52;6.20;99.90
54461;DHT22;40371;49.414;11.010;2023-02-03T03:57:22;6.10;99.90
54461;DHT22;40371;49.414;11.010;2023-02-03T03:59:48;6.10;99.90
54461;DHT22;40371;49.414;11.010;2023-02-03T04:02:16;6.20;99.90
54461;DHT22;40371;49.414;11.010;2023-02-03T04:04:43;6.20;99.90
54461;DHT22;40371;49.414;11.010;2023-02-03T04:07:09;6.20;99.90
54461;DHT22;40371;49.414;11.010;2023-02-03T04:09:36;6.20;99.90
54461;DHT22;40371;49.414;11.010;2023-02-03T04:12:03;6.20;99.90
54461;DHT22;40371;49.414;11.010;2023-02-03T04:14:35;6.20;99.90
54461;DHT22;40371;49.414;11.010;2023-02-03T04:17:03;6.30;99.90
54461;DHT22;40371;49.414;11.010;2023-02-03T04:19:29;6.30;99.90
54461;DHT22;40371;49.414;11.010;2023-02-03T04:21:54;6.30;99.90
54461;DHT22;40371;49.414;11.010;2023-02-03T04:24:20;6.30;99.90
54461;DHT22;40371;49.414;11.010;2023-02-03T04:26:46;6.30;99.90
54461;DHT22;40371;49.414;11.010;2023-02-03T04:29:11;6.30;99.90
54461;DHT22;40371;49.414;11.010;2023-02-03T04:31:37;6.30;99.90
54461;DHT22;40371;49.414;11.010;2023-02-03T04:34:03;6.30;99.90
54461;DHT22;40371;49.414;11.010;2023-02-03T04:36:29;6.30;99.90
54461;DHT22;40371;49.414;11.010;2023-02-03T04:38:54;6.30;99.90
54461;DHT22;40371;49.414;11.010;2023-02-03T04:41:20;6.30;99.90
54461;DHT22;40371;49.414;11.010;2023-02-03T04:43:46;6.30;99.90
54461;DHT22;40371;49.414;11.010;2023-02-03T04:46:11;6.30;99.90
54461;DHT22;40371;49.414;11.010;2023-02-03T04:48:37;6.30;99.90
54461;DHT22;40371;49.414;11.010;2023-02-03T04:51:04;6.30;99.90
54461;DHT22;40371;49.414;11.010;2023-02-03T04:53:30;6.30;99.90
54461;DHT22;40371;49.414;11.010;2023-02-03T04:55:56;6.30;99.90
54461;DHT22;40371;49.414;11.010;2023-02-03T04:58:22;6.30;99.90
54461;DHT22;40371;49.414;11.010;2023-02-03T05:00:47;6.30;99.90
54461;DHT22;40371;49.414;11.010;2023-02-03T05:03:13;6.40;99.90
54461;DHT22;40371;49.414;11.010;2023-02-03T05:05:38;6.30;99.90
54461;DHT22;40371;49.414;11.010;2023-02-03T05:08:04;6.30;99.90
54461;DHT22;40371;49.414;11.010;2023-02-03T05:10:30;6.30;99.90
54461;DHT22;40371;49.414;11.010;2023-02-03T05:12:56;6.30;99.90
54461;DHT22;40371;49.414;11.010;2023-02-03T05:15:21;6.30;99.90
54461;DHT22;40371;49.414;11.010;2023-02-03T05:17:47;6.30;99.90
54461;DHT22;40371;49.414;11.010;2023-02-03T05:20:12;6.30;99.90
54461;DHT22;40371;49.414;11.010;2023-02-03T05:22:38;6.30;99.90
54461;DHT22;40371;49.414;11.010;2023-02-03T05:25:04;6.30;99.90
54461;DHT22;40371;49.414;11.010;2023-02-03T05:27:30;6.30;99.90
54461;DHT22;40371;49.414;11.010;2023-02-03T05:29:55;6.40;99.90
54461;DHT22;40371;49.414;11.010;2023-02-03T05:32:21;6.30;99.90
54461;DHT22;40371;49.414;11.010;2023-02-03T05:34:47;6.30;99.90
54461;DHT22;40371;49.414;11.010;2023-02-03T05:37:12;6.30;99.90
54461;DHT22;40371;49.414;11.010;2023-02-03T05:39:38;6.30;99.90
54461;DHT22;40371;49.414;11.010;2023-02-03T05:42:03;6.30;99.90
54461;DHT22;40371;49.414;11.010;2023-02-03T05:44:29;6.30;99.90
54461;DHT22;40371;49.414;11.010;2023-02-03T05:46:57;6.30;99.90
54461;DHT22;40371;49.414;11.010;2023-02-03T05:49:23;6.30;99.90
54461;DHT22;40371;49.414;11.010;2023-02-03T05:51:50;6.30;99.90
54461;DHT22;40371;49.414;11.010;2023-02-03T05:54:16;6.30;99.90
54461;DHT22;40371;49.414;11.010;2023-02-03T05:56:42;6.30;99.90
54461;DHT22;40371;49.414;11.010;2023-02-03T05:59:08;6.20;99.90
54461;DHT22;40371;49.414;11.010;2023-02-03T06:01:35;6.20;99.90
54461;DHT22;40371;49.414;11.010;2023-02-03T06:04:01;6.20;99.90
54461;DHT22;40371;49.414;11.010;2023-02-03T06:06:28;6.20;99.90
54461;DHT22;40371;49.414;11.010;2023-02-03T06:09:05;6.20;99.90
54461;DHT22;40371;49.414;11.010;2023-02-03T06:11:32;6.20;99.90
54461;DHT22;40371;49.414;11.010;2023-02-03T06:13:59;6.20;99.90
54461;DHT22;40371;49.414;11.010;2023-02-03T06:16:28;6.20;99.90
54461;DHT22;40371;49.414;11.010;2023-02-03T06:18:54;6.20;99.90
54461;DHT22;40371;49.414;11.010;2023-02-03T06:21:24;6.10;99.90
54461;DHT22;40371;49.414;11.010;2023-02-03T06:23:49;6.10;99.90
54461;DHT22;40371;49.414;11.010;2023-02-03T06:26:15;6.10;99.90
54461;DHT22;40371;49.414;11.010;2023-02-03T06:28:41;6.10;99.90
54461;DHT22;40371;49.414;11.010;2023-02-03T06:31:06;6.10;99.90
54461;DHT22;40371;49.414;11.010;2023-02-03T06:33:32;6.10;99.90
54461;DHT22;40371;49.414;11.010;2023-02-03T06:35:58;6.10;99.90
54461;DHT22;40371;49.414;11.010;2023-02-03T06:38:23;6.10;99.90
54461;DHT22;40371;49.414;11.010;2023-02-03T06:40:49;6.10;99.90
54461;DHT22;40371;49.414;11.010;2023-02-03T06:43:16;6.10;99.90
54461;DHT22;40371;49.414;11.010;2023-02-03T06:45:44;6.20;99.90
54461;DHT22;40371;49.414;11.010;2023-02-03T06:48:11;6.20;99.90
54461;DHT22;40371;49.414;11.010;2023-02-03T06:50:37;6.20;99.90
54461;DHT22;40371;49.414;11.010;2023-02-03T06:53:03;6.30;99.90
54461;DHT22;40371;49.414;11.010;2023-02-03T06:55:28;6.30;99.90
54461;DHT22;40371;49.414;11.010;2023-02-03T06:57:54;6.30;99.90
54461;DHT22;40371;49.414;11.010;2023-02-03T07:00:20;6.30;99.90
54461;DHT22;40371;49.414;11.010;2023-02-03T07:02:52;6.30;99.90
54461;DHT22;40371;49.414;11.010;2023-02-03T07:05:18;6.30;99.90
54461;DHT22;40371;49.414;11.010;2023-02-03T07:07:44;6.30;99.90
54461;DHT22;40371;49.414;11.010;2023-02-03T07:10:09;6.40;99.90
54461;DHT22;40371;49.414;11.010;2023-02-03T07:12:35;6.40;99.90
54461;DHT22;40371;49.414;11.010;2023-02-03T07:15:02;6.40;99.90
54461;DHT22;40371;49.414;11.010;2023-02-03T07:17:28;6.40;99.90
54461;DHT22;40371;49.414;11.010;2023-02-03T07:19:53;6.40;99.90
54461;DHT22;40371;49.414;11.010;2023-02-03T07:22:19;6.40;99.90
54461;DHT22;40371;49.414;11.010;2023-02-03T07:24:44;6.40;99.90
54461;DHT22;40371;49.414;11.010;2023-02-03T07:27:10;6.50;99.90
54461;DHT22;40371;49.414;11.010;2023-02-03T07:29:36;6.50;99.90
54461;DHT22;40371;49.414;11.010;2023-02-03T07:32:01;6.50;99.90
54461;DHT22;40371;49.414;11.010;2023-02-03T07:34:27;7.00;99.90
54461;DHT22;40371;49.414;11.010;2023-02-03T07:36:53;7.00;99.90
54461;DHT22;40371;49.414;11.010;2023-02-03T07:39:18;6.70;99.90
54461;DHT22;40371;49.414;11.010;2023-02-03T07:41:44;6.60;99.90
54461;DHT22;40371;49.414;11.010;2023-02-03T07:44:10;6.50;99.90
54461;DHT22;40371;49.414;11.010;2023-02-03T07:46:35;6.50;99.90
54461;DHT22;40371;49.414;11.010;2023-02-03T07:49:04;6.50;99.90
54461;DHT22;40371;49.414;11.010;2023-02-03T07:51:30;6.40;99.90
54461;DHT22;40371;49.414;11.010;2023-02-03T07:53:56;6.40;99.90
54461;DHT22;40371;49.414;11.010;2023-02-03T07:56:21;6.40;99.90
54461;DHT22;40371;49.414;11.010;2023-02-03T07:58:47;6.40;99.90
54461;DHT22;40371;49.414;11.010;2023-02-03T08:01:16;6.40;99.90
54461;DHT22;40371;49.414;11.010;2023-02-03T08:03:41;6.50;99.90
54461;DHT22;40371;49.414;11.010;2023-02-03T08:06:07;6.50;99.90
54461;DHT22;40371;49.414;11.010;2023-02-03T08:08:33;6.50;99.90
54461;DHT22;40371;49.414;11.010;2023-02-03T08:10:59;6.50;99.90
54461;DHT22;40371;49.414;11.010;2023-02-03T08:13:24;6.50;99.90
54461;DHT22;40371;49.414;11.010;2023-02-03T08:15:50;6.50;99.90
54461;DHT22;40371;49.414;11.010;2023-02-03T08:18:16;6.60;99.90
54461;DHT22;40371;49.414;11.010;2023-02-03T08:20:41;6.60;99.90
54461;DHT22;40371;49.414;11.010;2023-02-03T08:23:07;6.60;99.90
54461;DHT22;40371;49.414;11.010;2023-02-03T08:25:33;6.60;99.90
54461;DHT22;40371;49.414;11.010;2023-02-03T08:27:58;6.60;99.90
54461;DHT22;40371;49.414;11.010;2023-02-03T08:30:24;6.60;99.90
54461;DHT22;40371;49.414;11.010;2023-02-03T08:32:50;6.60;99.90
54461;DHT22;40371;49.414;11.010;2023-02-03T08:35:15;6.60;99.90
54461;DHT22;40371;49.414;11.010;2023-02-03T08:37:41;6.60;99.90
54461;DHT22;40371;49.414;11.010;2023-02-03T08:40:08;6.60;99.90
54461;DHT22;40371;49.414;11.010;2023-02-03T08:42:33;6.70;99.90
54461;DHT22;40371;49.414;11.010;2023-02-03T08:44:59;6.70;99.90
54461;DHT22;40371;49.414;11.010;2023-02-03T08:47:25;6.70;99.90
54461;DHT22;40371;49.414;11.010;2023-02-03T08:49:51;6.70;99.90
54461;DHT22;40371;49.414;11.010;2023-02-03T08:52:17;6.70;99.90
54461;DHT22;40371;49.414;11.010;2023-02-03T08:54:43;6.70;99.90
54461;DHT22;40371;49.414;11.010;2023-02-03T08:57:09;6.70;99.90
54461;DHT22;40371;49.414;11.010;2023-02-03T08:59:37;6.70;99.90
54461;DHT22;40371;49.414;11.010;2023-02-03T09:02:04;6.70;99.90
54461;DHT22;40371;49.414;11.010;2023-02-03T09:04:30;6.70;99.90
54461;DHT22;40371;49.414;11.010;2023-02-03T09:06:58;6.80;99.90
54461;DHT22;40371;49.414;11.010;2023-02-03T09:09:23;7.90;99.90
54461;DHT22;40371;49.414;11.010;2023-02-03T09:11:51;7.30;99.90
54461;DHT22;40371;49.414;11.010;2023-02-03T09:14:17;7.10;99.90
54461;DHT22;40371;49.414;11.010;2023-02-03T09:16:43;6.90;99.90
54461;DHT22;40371;49.414;11.010;2023-02-03T09:19:08;6.90;99.90
54461;DHT22;40371;49.414;11.010;2023-02-03T09:21:34;6.90;99.90
54461;DHT22;40371;49.414;11.010;2023-02-03T09:24:00;7.10;99.90
54461;DHT22;40371;49.414;11.010;2023-02-03T09:26:27;7.80;99.90
54461;DHT22;40371;49.414;11.010;2023-02-03T09:28:53;7.80;99.90
54461;DHT22;40371;49.414;11.010;2023-02-03T09:31:19;7.80;99.90
54461;DHT22;40371;49.414;11.010;2023-02-03T09:33:45;7.80;99.90
54461;DHT22;40371;49.414;11.010;2023-02-03T09:36:11;7.70;99.90
54461;DHT22;40371;49.414;11.010;2023-02-03T09:38:37;7.80;99.90
54461;DHT22;40371;49.414;11.010;2023-02-03T09:41:11;7.70;99.90
54461;DHT22;40371;49.414;11.010;2023-02-03T09:46:21;7.30;99.90
54461;DHT22;40371;49.414;11.010;2023-02-03T09:51:43;7.30;99.90
54461;DHT22;40371;49.414;11.010;2023-02-03T09:54:38;7.30;99.90
54461;DHT22;40371;49.414;11.010;2023-02-03T09:57:23;7.30;99.90
54461;DHT22;40371;49.414;11.010;2023-02-03T09:59:50;7.30;99.90
54461;DHT22;40371;49.414;11.010;2023-02-03T10:07:34;7.30;99.90
54461;DHT22;40371;49.414;11.010;2023-02-03T10:12:57;7.40;99.90
54461;DHT22;40371;49.414;11.010;2023-02-03T10:15:44;7.50;99.90
54461;DHT22;40371;49.414;11.010;2023-02-03T10:18:16;7.50;99.90
54461;DHT22;40371;49.414;11.010;2023-02-03T10:20:47;7.60;99.90
54461;DHT22;40371;49.414;11.010;2023-02-03T10:23:17;7.50;99.90
54461;DHT22;40371;49.414;11.010;2023-02-03T10:25:50;7.60;99.90
54461;DHT22;40371;49.414;11.010;2023-02-03T10:28:26;7.70;99.90
54461;DHT22;40371;49.414;11.010;2023-02-03T10:30:56;7.80;99.90
54461;DHT22;40371;49.414;11.010;2023-02-03T10:33:27;7.80;99.90
54461;DHT22;40371;49.414;11.010;2023-02-03T10:36:03;7.70;99.90
54461;DHT22;40371;49.414;11.010;2023-02-03T10:38:58;7.70;99.90
54461;DHT22;40371;49.414;11.010;2023-02-03T10:41:27;7.70;99.90
54461;DHT22;40371;49.414;11.010;2023-02-03T10:43:53;7.60;99.90
54461;DHT22;40371;49.414;11.010;2023-02-03T10:46:31;7.60;99.90
54461;DHT22;40371;49.414;11.010;2023-02-03T10:48:58;7.50;99.90
54461;DHT22;40371;49.414;11.010;2023-02-03T10:51:26;7.60;99.90
54461;DHT22;40371;49.414;11.010;2023-02-03T10:53:52;7.70;99.90
54461;DHT22;40371;49.414;11.010;2023-02-03T10:56:30;7.70;99.90
54461;DHT22;40371;49.414;11.010;2023-02-03T10:58:58;7.70;99.90
54461;DHT22;40371;49.414;11.010;2023-02-03T11:01:39;7.70;99.90
54461;DHT22;40371;49.414;11.010;2023-02-03T11:04:06;7.70;99.90
54461;DHT22;40371;49.414;11.010;2023-02-03T11:06:34;7.70;99.90
54461;DHT22;40371;49.414;11.010;2023-02-03T11:09:01;7.70;99.90
54461;DHT22;40371;49.414;11.010;2023-02-03T11:11:40;7.70;99.90
54461;DHT22;40371;49.414;11.010;2023-02-03T11:16:33;7.70;99.90
54461;DHT22;40371;49.414;11.010;2023-02-03T11:19:19;7.60;99.90
54461;DHT22;40371;49.414;11.010;2023-02-03T11:21:51;7.60;99.90
54461;DHT22;40371;49.414;11.010;2023-02-03T11:24:20;7.60;99.90
54461;DHT22;40371;49.414;11.010;2023-02-03T11:26:58;7.60;99.90
54461;DHT22;40371;49.414;11.010;2023-02-03T11:29:28;7.60;99.90
54461;DHT22;40371;49.414;11.010;2023-02-03T11:31:59;7.60;99.90
54461;DHT22;40371;49.414;11.010;2023-02-03T11:34:55;7.60;99.90
54461;DHT22;40371;49.414;11.010;2023-02-03T11:42:31;7.70;99.90
54461;DHT22;40371;49.414;11.010;2023-02-03T11:45:29;7.80;99.90
54461;DHT22;40371;49.414;11.010;2023-02-03T11:48:31;7.90;99.90
54461;DHT22;40371;49.414;11.010;2023-02-03T11:51:04;7.90;99.90
54461;DHT22;40371;49.414;11.010;2023-02-03T11:56:31;7.90;99.90
54461;DHT22;40371;49.414;11.010;2023-02-03T11:59:09;7.90;99.90
54461;DHT22;40371;49.414;11.010;2023-02-03T12:04:28;7.80;99.90
54461;DHT22;40371;49.414;11.010;2023-02-03T12:21:42;7.70;99.90
54461;DHT22;40371;49.414;11.010;2023-02-03T12:27:25;7.70;99.90
54461;DHT22;40371;49.414;11.010;2023-02-03T12:33:12;7.70;99.90
54461;DHT22;40371;49.414;11.010;2023-02-03T12:36:13;7.70;99.90
54461;DHT22;40371;49.414;11.010;2023-02-03T12:38:45;7.60;99.90
54461;DHT22;40371;49.414;11.010;2023-02-03T12:41:19;7.60;99.90
54461;DHT22;40371;49.414;11.010;2023-02-03T12:43:48;7.50;99.90
54461;DHT22;40371;49.414;11.010;2023-02-03T12:49:18;7.50;99.90
54461;DHT22;40371;49.414;11.010;2023-02-03T12:51:53;7.50;99.90
54461;DHT22;40371;49.414;11.010;2023-02-03T12:54:48;7.40;99.90
54461;DHT22;40371;49.414;11.010;2023-02-03T12:57:33;7.50;99.90
54461;DHT22;40371;49.414;11.010;2023-02-03T13:00:16;7.40;99.90
54461;DHT22;40371;49.414;11.010;2023-02-03T13:05:27;7.60;99.90
54461;DHT22;40371;49.414;11.010;2023-02-03T13:08:24;7.30;99.90
54461;DHT22;40371;49.414;11.010;2023-02-03T13:11:07;7.30;99.90
54461;DHT22;40371;49.414;11.010;2023-02-03T13:13:41;7.30;99.90
54461;DHT22;40371;49.414;11.010;2023-02-03T13:16:08;7.30;99.90
54461;DHT22;40371;49.414;11.010;2023-02-03T13:18:43;7.30;99.90
54461;DHT22;40371;49.414;11.010;2023-02-03T13:21:11;7.30;99.90
54461;DHT22;40371;49.414;11.010;2023-02-03T13:23:40;7.30;99.90
54461;DHT22;40371;49.414;11.010;2023-02-03T13:26:32;7.30;99.90
54461;DHT22;40371;49.414;11.010;2023-02-03T13:29:22;7.30;99.90
54461;DHT22;40371;49.414;11.010;2023-02-03T13:32:05;7.30;99.90
54461;DHT22;40371;49.414;11.010;2023-02-03T13:37:55;7.20;99.90
54461;DHT22;40371;49.414;11.010;2023-02-03T13:40:31;7.30;99.90
54461;DHT22;40371;49.414;11.010;2023-02-03T13:43:03;7.30;99.90
54461;DHT22;40371;49.414;11.010;2023-02-03T13:45:39;7.30;99.90
54461;DHT22;40371;49.414;11.010;2023-02-03T13:48:23;7.30;99.90
54461;DHT22;40371;49.414;11.010;2023-02-03T13:51:01;7.30;99.90
54461;DHT22;40371;49.414;11.010;2023-02-03T13:53:27;7.30;99.90
54461;DHT22;40371;49.414;11.010;2023-02-03T13:55:57;7.30;99.90
54461;DHT22;40371;49.414;11.010;2023-02-03T13:58:26;7.30;99.90
54461;DHT22;40371;49.414;11.010;2023-02-03T14:05:54;7.30;99.90
54461;DHT22;40371;49.414;11.010;2023-02-03T14:16:35;7.40;99.90
54461;DHT22;40371;49.414;11.010;2023-02-03T14:19:01;7.70;99.90
54461;DHT22;40371;49.414;11.010;2023-02-03T14:21:37;7.50;99.90
54461;DHT22;40371;49.414;11.010;2023-02-03T14:24:09;7.40;99.90
54461;DHT22;40371;49.414;11.010;2023-02-03T14:26:45;7.30;99.90
54461;DHT22;40371;49.414;11.010;2023-02-03T14:29:27;7.20;99.90
54461;DHT22;40371;49.414;11.010;2023-02-03T14:32:10;7.20;99.90
54461;DHT22;40371;49.414;11.010;2023-02-03T14:34:39;7.10;99.90
54461;DHT22;40371;49.414;11.010;2023-02-03T14:37:26;7.10;99.90
54461;DHT22;40371;49.414;11.010;2023-02-03T14:40:21;7.10;99.90
54461;DHT22;40371;49.414;11.010;2023-02-03T14:43:09;7.10;99.90
54461;DHT22;40371;49.414;11.010;2023-02-03T14:45:44;7.10;99.90
54461;DHT22;40371;49.414;11.010;2023-02-03T14:59:59;7.00;99.90
54461;DHT22;40371;49.414;11.010;2023-02-03T15:02:27;7.00;99.90
54461;DHT22;40371;49.414;11.010;2023-02-03T15:05:40;7.00;99.90
54461;DHT22;40371;49.414;11.010;2023-02-03T15:10:53;7.00;99.90
54461;DHT22;40371;49.414;11.010;2023-02-03T15:13:27;7.00;99.90
54461;DHT22;40371;49.414;11.010;2023-02-03T15:15:55;7.00;99.90
54461;DHT22;40371;49.414;11.010;2023-02-03T15:18:27;7.00;99.90
54461;DHT22;40371;49.414;11.010;2023-02-03T15:20:54;7.00;99.90
54461;DHT22;40371;49.414;11.010;2023-02-03T15:23:22;7.00;99.90
54461;DHT22;40371;49.414;11.010;2023-02-03T15:25:53;7.00;99.90
54461;DHT22;40371;49.414;11.010;2023-02-03T15:28:20;7.00;99.90
54461;DHT22;40371;49.414;11.010;2023-02-03T15:30:51;7.00;99.90
54461;DHT22;40371;49.414;11.010;2023-02-03T15:33:19;7.00;99.90
54461;DHT22;40371;49.414;11.010;2023-02-03T15:35:54;7.00;99.90
54461;DHT22;40371;49.414;11.010;2023-02-03T15:38:43;7.00;99.90
54461;DHT22;40371;49.414;11.010;2023-02-03T15:41:16;6.90;99.90
54461;DHT22;40371;49.414;11.010;2023-02-03T15:43:45;6.90;99.90
54461;DHT22;40371;49.414;11.010;2023-02-03T15:48:50;6.90;99.90
54461;DHT22;40371;49.414;11.010;2023-02-03T15:53:52;6.90;99.90
54461;DHT22;40371;49.414;11.010;2023-02-03T15:56:32;6.90;99.90
54461;DHT22;40371;49.414;11.010;2023-02-03T15:59:04;6.90;99.90
54461;DHT22;40371;49.414;11.010;2023-02-03T16:01:31;6.90;99.90
54461;DHT22;40371;49.414;11.010;2023-02-03T16:03:58;6.90;99.90
54461;DHT22;40371;49.414;11.010;2023-02-03T16:06:32;6.90;99.90
54461;DHT22;40371;49.414;11.010;2023-02-03T16:09:27;6.90;99.90
54461;DHT22;40371;49.414;11.010;2023-02-03T16:12:16;6.90;99.90
54461;DHT22;40371;49.414;11.010;2023-02-03T16:14:43;6.90;99.90
54461;DHT22;40371;49.414;11.010;2023-02-03T16:25:26;6.80;99.90
54461;DHT22;40371;49.414;11.010;2023-02-03T16:30:57;6.80;99.90
54461;DHT22;40371;49.414;11.010;2023-02-03T16:33:47;6.80;99.90
54461;DHT22;40371;49.414;11.010;2023-02-03T16:36:31;6.90;99.90
54461;DHT22;40371;49.414;11.010;2023-02-03T16:39:16;6.90;99.90
54461;DHT22;40371;49.414;11.010;2023-02-03T16:42:07;6.90;99.90
54461;DHT22;40371;49.414;11.010;2023-02-03T16:44:55;6.90;99.90
54461;DHT22;40371;49.414;11.010;2023-02-03T16:47:40;6.90;99.90
54461;DHT22;40371;49.414;11.010;2023-02-03T16:50:25;6.90;99.90
54461;DHT22;40371;49.414;11.010;2023-02-03T16:53:12;6.90;99.90
54461;DHT22;40371;49.414;11.010;2023-02-03T16:55:38;6.90;99.90
54461;DHT22;40371;49.414;11.010;2023-02-03T16:58:04;6.90;99.90
54461;DHT22;40371;49.414;11.010;2023-02-03T17:00:30;6.90;99.90
54461;DHT22;40371;49.414;11.010;2023-02-03T17:02:55;6.90;99.90
54461;DHT22;40371;49.414;11.010;2023-02-03T17:05:21;6.90;99.90
54461;DHT22;40371;49.414;11.010;2023-02-03T17:07:47;6.90;99.90
54461;DHT22;40371;49.414;11.010;2023-02-03T17:10:13;6.90;99.90
54461;DHT22;40371;49.414;11.010;2023-02-03T17:12:39;6.90;99.90
54461;DHT22;40371;49.414;11.010;2023-02-03T17:15:06;6.90;99.90
54461;DHT22;40371;49.414;11.010;2023-02-03T17:17:32;7.00;99.90
54461;DHT22;40371;49.414;11.010;2023-02-03T17:19:57;7.00;99.90
54461;DHT22;40371;49.414;11.010;2023-02-03T17:22:24;7.00;99.90
54461;DHT22;40371;49.414;11.010;2023-02-03T17:24:51;7.00;99.90
54461;DHT22;40371;49.414;11.010;2023-02-03T17:27:17;7.00;99.90
54461;DHT22;40371;49.414;11.010;2023-02-03T17:29:42;7.00;99.90
54461;DHT22;40371;49.414;11.010;2023-02-03T17:32:08;7.00;99.90
54461;DHT22;40371;49.414;11.010;2023-02-03T17:34:36;7.10;99.90
54461;DHT22;40371;49.414;11.010;2023-02-03T17:37:02;7.10;99.90
54461;DHT22;40371;49.414;11.010;2023-02-03T17:39:27;7.10;99.90
54461;DHT22;40371;49.414;11.010;2023-02-03T17:41:53;7.10;99.90
54461;DHT22;40371;49.414;11.010;2023-02-03T17:44:19;7.20;99.90
54461;DHT22;40371;49.414;11.010;2023-02-03T17:46:44;7.20;99.90
54461;DHT22;40371;49.414;11.010;2023-02-03T17:49:10;7.20;99.90
54461;DHT22;40371;49.414;11.010;2023-02-03T17:51:36;7.20;99.90
54461;DHT22;40371;49.414;11.010;2023-02-03T17:54:01;7.20;99.90
54461;DHT22;40371;49.414;11.010;2023-02-03T17:56:31;7.20;99.90